sensor_id;sensor_type;location;lat;lon;timestamp;P1;durP1;ratioP1;P2;durP2;ratioP2
3991;SDS011;2010;48.194;16.394;2023-03-03T00:00:57;51.13;;;24.17;;
3991;SDS011;2010;48.194;16.394;2023-03-03T00:03:38;44.50;;;24.77;;
3991;SDS011;2010;48.194;16.394;2023-03-03T00:06:24;46.77;;;26.00;;
3991;SDS011;2010;48.194;16.394;2023-03-03T00:08:53;52.57;;;27.27;;
3991;SDS011;2010;48.194;16.394;2023-03-03T00:11:23;42.77;;;25.07;;
3991;SDS011;2010;48.194;16.394;2023-03-03T00:13:55;45.37;;;26.73;;
3991;SDS011;2010;48.194;16.394;2023-03-03T00:16:29;44.10;;;24.60;;
3991;SDS011;2010;48.194;16.394;2023-03-03T00:19:01;42.87;;;25.43;;
3991;SDS011;2010;48.194;16.394;2023-03-03T00:21:32;38.40;;;24.57;;
3991;SDS011;2010;48.194;16.394;2023-03-03T00:24:16;40.87;;;24.37;;
3991;SDS011;2010;48.194;16.394;2023-03-03T00:26:48;42.13;;;24.50;;
3991;SDS011;2010;48.194;16.394;2023-03-03T00:29:33;42.50;;;25.67;;
3991;SDS011;2010;48.194;16.394;2023-03-03T00:37:57;35.60;;;23.00;;
3991;SDS011;2010;48.194;16.394;2023-03-03T00:40:36;42.53;;;23.83;;
3991;SDS011;2010;48.194;16.394;2023-03-03T00:43:13;42.73;;;23.17;;
3991;SDS011;2010;48.194;16.394;2023-03-03T00:45:55;33.73;;;22.73;;
3991;SDS011;2010;48.194;16.394;2023-03-03T00:48:39;35.80;;;22.90;;
3991;SDS011;2010;48.194;16.394;2023-03-03T00:51:26;44.80;;;23.57;;
3991;SDS011;2010;48.194;16.394;2023-03-03T00:53:59;40.70;;;24.77;;
3991;SDS011;2010;48.194;16.394;2023-03-03T00:56:30;38.63;;;22.80;;
3991;SDS011;2010;48.194;16.394;2023-03-03T00:59:00;39.37;;;25.07;;
3991;SDS011;2010;48.194;16.394;2023-03-03T01:01:30;40.20;;;25.73;;
3991;SDS011;2010;48.194;16.394;2023-03-03T01:04:05;43.70;;;24.70;;
3991;SDS011;2010;48.194;16.394;2023-03-03T01:06:41;37.30;;;23.20;;
3991;SDS011;2010;48.194;16.394;2023-03-03T01:09:13;37.80;;;24.60;;
3991;SDS011;2010;48.194;16.394;2023-03-03T01:11:51;40.50;;;24.73;;
3991;SDS011;2010;48.194;16.394;2023-03-03T01:14:23;41.93;;;24.47;;
3991;SDS011;2010;48.194;16.394;2023-03-03T01:16:56;41.00;;;25.57;;
3991;SDS011;2010;48.194;16.394;2023-03-03T01:19:26;41.10;;;24.90;;
3991;SDS011;2010;48.194;16.394;2023-03-03T01:22:01;42.30;;;24.63;;
3991;SDS011;2010;48.194;16.394;2023-03-03T01:24:36;38.87;;;25.00;;
3991;SDS011;2010;48.194;16.394;2023-03-03T01:27:04;39.50;;;25.00;;
3991;SDS011;2010;48.194;16.394;2023-03-03T01:29:34;40.40;;;24.77;;
3991;SDS011;2010;48.194;16.394;2023-03-03T01:32:05;42.10;;;25.50;;
3991;SDS011;2010;48.194;16.394;2023-03-03T01:34:43;56.20;;;25.60;;
3991;SDS011;2010;48.194;16.394;2023-03-03T01:37:21;42.47;;;25.00;;
3991;SDS011;2010;48.194;16.394;2023-03-03T01:39:56;41.33;;;24.03;;
3991;SDS011;2010;48.194;16.394;2023-03-03T01:42:26;43.43;;;25.77;;
3991;SDS011;2010;48.194;16.394;2023-03-03T01:45:14;39.40;;;25.23;;
3991;SDS011;2010;48.194;16.394;2023-03-03T01:47:51;44.20;;;26.53;;
3991;SDS011;2010;48.194;16.394;2023-03-03T01:50:42;41.53;;;25.90;;
3991;SDS011;2010;48.194;16.394;2023-03-03T01:53:19;46.53;;;25.40;;
3991;SDS011;2010;48.194;16.394;2023-03-03T01:55:49;42.43;;;26.37;;
3991;SDS011;2010;48.194;16.394;2023-03-03T01:58:29;47.67;;;26.00;;
3991;SDS011;2010;48.194;16.394;2023-03-03T02:01:06;39.50;;;24.50;;
3991;SDS011;2010;48.194;16.394;2023-03-03T02:03:41;45.50;;;26.73;;
3991;SDS011;2010;48.194;16.394;2023-03-03T02:06:14;38.37;;;24.60;;
3991;SDS011;2010;48.194;16.394;2023-03-03T02:08:57;39.40;;;24.60;;
3991;SDS011;2010;48.194;16.394;2023-03-03T02:11:29;43.63;;;26.80;;
3991;SDS011;2010;48.194;16.394;2023-03-03T02:14:04;39.97;;;25.33;;
3991;SDS011;2010;48.194;16.394;2023-03-03T02:16:33;44.13;;;24.40;;
3991;SDS011;2010;48.194;16.394;2023-03-03T02:19:03;48.63;;;27.60;;
3991;SDS011;2010;48.194;16.394;2023-03-03T02:21:35;48.63;;;28.73;;
3991;SDS011;2010;48.194;16.394;2023-03-03T02:24:32;53.47;;;29.30;;
3991;SDS011;2010;48.194;16.394;2023-03-03T02:27:10;48.90;;;28.57;;
3991;SDS011;2010;48.194;16.394;2023-03-03T02:29:44;49.23;;;29.13;;
3991;SDS011;2010;48.194;16.394;2023-03-03T02:32:22;45.53;;;28.03;;
3991;SDS011;2010;48.194;16.394;2023-03-03T02:34:54;51.67;;;29.87;;
3991;SDS011;2010;48.194;16.394;2023-03-03T02:37:23;49.20;;;28.60;;
3991;SDS011;2010;48.194;16.394;2023-03-03T02:39:54;52.17;;;28.60;;
3991;SDS011;2010;48.194;16.394;2023-03-03T02:42:24;48.73;;;29.27;;
3991;SDS011;2010;48.194;16.394;2023-03-03T02:44:58;49.50;;;30.50;;
3991;SDS011;2010;48.194;16.394;2023-03-03T02:47:41;50.23;;;29.37;;
3991;SDS011;2010;48.194;16.394;2023-03-03T02:50:22;49.67;;;30.90;;
3991;SDS011;2010;48.194;16.394;2023-03-03T02:52:58;45.60;;;29.63;;
3991;SDS011;2010;48.194;16.394;2023-03-03T02:55:32;64.63;;;34.37;;
3991;SDS011;2010;48.194;16.394;2023-03-03T02:58:12;47.40;;;28.30;;
3991;SDS011;2010;48.194;16.394;2023-03-03T03:00:48;53.20;;;30.50;;
3991;SDS011;2010;48.194;16.394;2023-03-03T03:03:28;47.10;;;29.20;;
3991;SDS011;2010;48.194;16.394;2023-03-03T03:06:06;54.50;;;31.17;;
3991;SDS011;2010;48.194;16.394;2023-03-03T03:08:41;46.43;;;30.20;;
3991;SDS011;2010;48.194;16.394;2023-03-03T03:11:16;49.87;;;29.60;;
3991;SDS011;2010;48.194;16.394;2023-03-03T03:13:52;46.20;;;29.60;;
3991;SDS011;2010;48.194;16.394;2023-03-03T03:16:33;52.10;;;30.00;;
3991;SDS011;2010;48.194;16.394;2023-03-03T03:19:09;48.37;;;30.20;;
3991;SDS011;2010;48.194;16.394;2023-03-03T03:21:41;51.33;;;31.70;;
3991;SDS011;2010;48.194;16.394;2023-03-03T03:24:14;53.07;;;31.30;;
3991;SDS011;2010;48.194;16.394;2023-03-03T03:26:59;54.03;;;29.60;;
3991;SDS011;2010;48.194;16.394;2023-03-03T03:29:39;49.70;;;30.20;;
3991;SDS011;2010;48.194;16.394;2023-03-03T03:32:09;52.37;;;30.30;;
3991;SDS011;2010;48.194;16.394;2023-03-03T03:34:48;51.90;;;30.90;;
3991;SDS011;2010;48.194;16.394;2023-03-03T03:37:18;48.07;;;28.67;;
3991;SDS011;2010;48.194;16.394;2023-03-03T03:40:06;52.13;;;29.37;;
3991;SDS011;2010;48.194;16.394;2023-03-03T03:42:49;50.10;;;31.37;;
3991;SDS011;2010;48.194;16.394;2023-03-03T03:45:24;49.40;;;29.50;;
3991;SDS011;2010;48.194;16.394;2023-03-03T03:48:02;50.50;;;28.80;;
3991;SDS011;2010;48.194;16.394;2023-03-03T03:50:35;53.47;;;30.67;;
3991;SDS011;2010;48.194;16.394;2023-03-03T03:53:05;55.57;;;32.47;;
3991;SDS011;2010;48.194;16.394;2023-03-03T03:55:38;54.03;;;32.67;;
3991;SDS011;2010;48.194;16.394;2023-03-03T03:58:08;51.70;;;31.50;;
3991;SDS011;2010;48.194;16.394;2023-03-03T04:00:41;52.00;;;32.27;;
3991;SDS011;2010;48.194;16.394;2023-03-03T04:03:12;57.70;;;31.40;;
3991;SDS011;2010;48.194;16.394;2023-03-03T04:05:51;51.60;;;31.50;;
3991;SDS011;2010;48.194;16.394;2023-03-03T04:08:22;54.37;;;31.90;;
3991;SDS011;2010;48.194;16.394;2023-03-03T04:10:54;57.47;;;33.00;;
3991;SDS011;2010;48.194;16.394;2023-03-03T04:13:24;52.23;;;31.90;;
3991;SDS011;2010;48.194;16.394;2023-03-03T04:15:56;53.83;;;32.20;;
3991;SDS011;2010;48.194;16.394;2023-03-03T04:18:26;53.63;;;32.77;;
3991;SDS011;2010;48.194;16.394;2023-03-03T04:20:55;54.40;;;31.80;;
3991;SDS011;2010;48.194;16.394;2023-03-03T04:23:29;51.93;;;31.33;;
3991;SDS011;2010;48.194;16.394;2023-03-03T04:26:00;56.23;;;30.43;;
3991;SDS011;2010;48.194;16.394;2023-03-03T04:28:37;39.87;;;24.90;;
3991;SDS011;2010;48.194;16.394;2023-03-03T04:31:08;38.67;;;23.00;;
3991;SDS011;2010;48.194;16.394;2023-03-03T04:33:44;39.93;;;23.13;;
3991;SDS011;2010;48.194;16.394;2023-03-03T04:36:14;41.17;;;22.20;;
3991;SDS011;2010;48.194;16.394;2023-03-03T04:38:51;41.60;;;23.50;;
3991;SDS011;2010;48.194;16.394;2023-03-03T04:41:25;38.27;;;22.33;;
3991;SDS011;2010;48.194;16.394;2023-03-03T04:43:54;34.83;;;22.37;;
3991;SDS011;2010;48.194;16.394;2023-03-03T04:46:26;36.00;;;21.87;;
3991;SDS011;2010;48.194;16.394;2023-03-03T04:48:57;38.67;;;23.20;;
3991;SDS011;2010;48.194;16.394;2023-03-03T04:51:36;37.97;;;21.03;;
3991;SDS011;2010;48.194;16.394;2023-03-03T04:54:09;42.53;;;21.37;;
3991;SDS011;2010;48.194;16.394;2023-03-03T04:56:38;34.63;;;22.63;;
3991;SDS011;2010;48.194;16.394;2023-03-03T04:59:09;34.80;;;22.87;;
3991;SDS011;2010;48.194;16.394;2023-03-03T05:01:41;36.70;;;22.13;;
3991;SDS011;2010;48.194;16.394;2023-03-03T05:04:15;33.77;;;21.60;;
3991;SDS011;2010;48.194;16.394;2023-03-03T05:06:47;32.37;;;22.00;;
3991;SDS011;2010;48.194;16.394;2023-03-03T05:09:17;42.77;;;23.00;;
3991;SDS011;2010;48.194;16.394;2023-03-03T05:11:49;35.30;;;21.20;;
3991;SDS011;2010;48.194;16.394;2023-03-03T05:14:22;33.33;;;21.77;;
3991;SDS011;2010;48.194;16.394;2023-03-03T05:16:52;32.27;;;20.03;;
3991;SDS011;2010;48.194;16.394;2023-03-03T05:19:29;32.47;;;20.10;;
3991;SDS011;2010;48.194;16.394;2023-03-03T05:22:03;37.43;;;22.50;;
3991;SDS011;2010;48.194;16.394;2023-03-03T05:24:49;32.10;;;20.07;;
3991;SDS011;2010;48.194;16.394;2023-03-03T05:27:17;34.50;;;19.90;;
3991;SDS011;2010;48.194;16.394;2023-03-03T05:29:49;34.33;;;18.77;;
3991;SDS011;2010;48.194;16.394;2023-03-03T05:32:29;29.63;;;17.20;;
3991;SDS011;2010;48.194;16.394;2023-03-03T05:35:00;32.97;;;18.70;;
3991;SDS011;2010;48.194;16.394;2023-03-03T05:37:29;30.43;;;19.60;;
3991;SDS011;2010;48.194;16.394;2023-03-03T05:39:59;31.80;;;17.97;;
3991;SDS011;2010;48.194;16.394;2023-03-03T05:42:31;33.03;;;19.47;;
3991;SDS011;2010;48.194;16.394;2023-03-03T05:45:01;33.23;;;21.33;;
3991;SDS011;2010;48.194;16.394;2023-03-03T05:47:39;32.90;;;19.50;;
3991;SDS011;2010;48.194;16.394;2023-03-03T05:50:11;40.40;;;21.73;;
3991;SDS011;2010;48.194;16.394;2023-03-03T05:52:47;39.13;;;22.53;;
3991;SDS011;2010;48.194;16.394;2023-03-03T05:55:19;37.20;;;21.20;;
3991;SDS011;2010;48.194;16.394;2023-03-03T05:57:48;41.67;;;25.17;;
3991;SDS011;2010;48.194;16.394;2023-03-03T06:00:18;40.83;;;25.00;;
3991;SDS011;2010;48.194;16.394;2023-03-03T06:02:50;42.07;;;25.20;;
3991;SDS011;2010;48.194;16.394;2023-03-03T06:05:20;43.30;;;26.47;;
3991;SDS011;2010;48.194;16.394;2023-03-03T06:07:53;45.03;;;26.43;;
3991;SDS011;2010;48.194;16.394;2023-03-03T06:10:27;45.47;;;27.50;;
3991;SDS011;2010;48.194;16.394;2023-03-03T06:13:03;47.87;;;28.23;;
3991;SDS011;2010;48.194;16.394;2023-03-03T06:15:35;48.00;;;27.97;;
3991;SDS011;2010;48.194;16.394;2023-03-03T06:18:13;47.60;;;28.60;;
3991;SDS011;2010;48.194;16.394;2023-03-03T06:20:51;49.57;;;29.90;;
3991;SDS011;2010;48.194;16.394;2023-03-03T06:23:20;47.67;;;30.30;;
3991;SDS011;2010;48.194;16.394;2023-03-03T06:25:49;51.70;;;29.63;;
3991;SDS011;2010;48.194;16.394;2023-03-03T06:28:20;51.50;;;29.70;;
3991;SDS011;2010;48.194;16.394;2023-03-03T06:30:52;58.93;;;31.77;;
3991;SDS011;2010;48.194;16.394;2023-03-03T06:33:27;51.33;;;29.93;;
3991;SDS011;2010;48.194;16.394;2023-03-03T06:35:57;61.33;;;31.80;;
3991;SDS011;2010;48.194;16.394;2023-03-03T06:38:26;50.73;;;30.00;;
3991;SDS011;2010;48.194;16.394;2023-03-03T06:41:11;56.03;;;32.30;;
3991;SDS011;2010;48.194;16.394;2023-03-03T06:43:41;51.00;;;30.43;;
3991;SDS011;2010;48.194;16.394;2023-03-03T06:46:26;56.20;;;32.70;;
3991;SDS011;2010;48.194;16.394;2023-03-03T06:48:59;56.20;;;33.47;;
3991;SDS011;2010;48.194;16.394;2023-03-03T06:51:38;57.93;;;33.50;;
3991;SDS011;2010;48.194;16.394;2023-03-03T06:54:12;60.10;;;35.70;;
3991;SDS011;2010;48.194;16.394;2023-03-03T06:56:52;73.57;;;40.37;;
3991;SDS011;2010;48.194;16.394;2023-03-03T06:59:25;68.80;;;40.70;;
3991;SDS011;2010;48.194;16.394;2023-03-03T07:01:55;71.20;;;40.23;;
3991;SDS011;2010;48.194;16.394;2023-03-03T07:04:46;68.50;;;39.47;;
3991;SDS011;2010;48.194;16.394;2023-03-03T07:07:17;78.93;;;42.27;;
3991;SDS011;2010;48.194;16.394;2023-03-03T07:09:49;76.80;;;41.67;;
3991;SDS011;2010;48.194;16.394;2023-03-03T07:12:25;73.77;;;43.50;;
3991;SDS011;2010;48.194;16.394;2023-03-03T07:15:00;68.57;;;42.77;;
3991;SDS011;2010;48.194;16.394;2023-03-03T07:17:43;78.80;;;43.27;;
3991;SDS011;2010;48.194;16.394;2023-03-03T07:20:29;85.10;;;45.03;;
3991;SDS011;2010;48.194;16.394;2023-03-03T07:23:07;78.33;;;43.10;;
3991;SDS011;2010;48.194;16.394;2023-03-03T07:25:44;70.83;;;42.63;;
3991;SDS011;2010;48.194;16.394;2023-03-03T07:28:23;79.10;;;42.70;;
3991;SDS011;2010;48.194;16.394;2023-03-03T07:30:54;82.50;;;42.93;;
3991;SDS011;2010;48.194;16.394;2023-03-03T07:33:30;72.30;;;42.53;;
3991;SDS011;2010;48.194;16.394;2023-03-03T07:36:25;87.63;;;45.20;;
3991;SDS011;2010;48.194;16.394;2023-03-03T07:38:57;72.27;;;42.60;;
3991;SDS011;2010;48.194;16.394;2023-03-03T07:41:29;74.73;;;41.87;;
3991;SDS011;2010;48.194;16.394;2023-03-03T07:44:04;78.03;;;44.03;;
3991;SDS011;2010;48.194;16.394;2023-03-03T07:46:35;72.90;;;42.50;;
3991;SDS011;2010;48.194;16.394;2023-03-03T07:49:15;70.27;;;41.07;;
3991;SDS011;2010;48.194;16.394;2023-03-03T07:51:54;67.53;;;38.00;;
3991;SDS011;2010;48.194;16.394;2023-03-03T07:54:29;71.23;;;39.87;;
3991;SDS011;2010;48.194;16.394;2023-03-03T07:57:14;75.10;;;42.20;;
3991;SDS011;2010;48.194;16.394;2023-03-03T07:59:54;84.13;;;45.30;;
3991;SDS011;2010;48.194;16.394;2023-03-03T08:02:51;72.03;;;42.20;;
3991;SDS011;2010;48.194;16.394;2023-03-03T08:05:26;70.63;;;41.00;;
3991;SDS011;2010;48.194;16.394;2023-03-03T08:08:21;68.97;;;40.70;;
3991;SDS011;2010;48.194;16.394;2023-03-03T08:10:57;79.33;;;43.23;;
3991;SDS011;2010;48.194;16.394;2023-03-03T08:13:28;58.90;;;38.13;;
3991;SDS011;2010;48.194;16.394;2023-03-03T08:16:20;63.67;;;37.90;;
3991;SDS011;2010;48.194;16.394;2023-03-03T08:18:59;65.77;;;37.83;;
3991;SDS011;2010;48.194;16.394;2023-03-03T08:21:31;62.50;;;41.10;;
3991;SDS011;2010;48.194;16.394;2023-03-03T08:24:06;72.47;;;38.87;;
3991;SDS011;2010;48.194;16.394;2023-03-03T08:26:36;58.00;;;37.97;;
3991;SDS011;2010;48.194;16.394;2023-03-03T08:29:07;59.73;;;37.90;;
3991;SDS011;2010;48.194;16.394;2023-03-03T08:31:47;65.90;;;38.23;;
3991;SDS011;2010;48.194;16.394;2023-03-03T08:34:19;65.20;;;37.10;;
3991;SDS011;2010;48.194;16.394;2023-03-03T08:36:48;63.33;;;35.87;;
3991;SDS011;2010;48.194;16.394;2023-03-03T08:39:18;66.30;;;36.10;;
3991;SDS011;2010;48.194;16.394;2023-03-03T08:41:51;62.63;;;37.50;;
3991;SDS011;2010;48.194;16.394;2023-03-03T08:44:23;60.40;;;37.40;;
3991;SDS011;2010;48.194;16.394;2023-03-03T08:46:55;65.80;;;37.80;;
3991;SDS011;2010;48.194;16.394;2023-03-03T08:49:40;62.10;;;36.97;;
3991;SDS011;2010;48.194;16.394;2023-03-03T08:52:09;58.70;;;35.07;;
3991;SDS011;2010;48.194;16.394;2023-03-03T08:54:59;55.83;;;36.23;;
3991;SDS011;2010;48.194;16.394;2023-03-03T08:57:35;60.40;;;35.90;;
3991;SDS011;2010;48.194;16.394;2023-03-03T09:00:08;62.60;;;36.60;;
3991;SDS011;2010;48.194;16.394;2023-03-03T09:02:39;59.67;;;35.43;;
3991;SDS011;2010;48.194;16.394;2023-03-03T09:05:09;65.17;;;35.60;;
3991;SDS011;2010;48.194;16.394;2023-03-03T09:07:44;71.60;;;38.53;;
3991;SDS011;2010;48.194;16.394;2023-03-03T09:10:27;74.97;;;39.93;;
3991;SDS011;2010;48.194;16.394;2023-03-03T09:12:59;64.10;;;37.10;;
3991;SDS011;2010;48.194;16.394;2023-03-03T09:15:39;67.80;;;38.10;;
3991;SDS011;2010;48.194;16.394;2023-03-03T09:18:13;61.83;;;34.57;;
3991;SDS011;2010;48.194;16.394;2023-03-03T09:20:49;55.13;;;33.23;;
3991;SDS011;2010;48.194;16.394;2023-03-03T09:23:31;58.00;;;34.40;;
3991;SDS011;2010;48.194;16.394;2023-03-03T09:31:51;55.70;;;34.07;;
3991;SDS011;2010;48.194;16.394;2023-03-03T09:34:23;61.90;;;35.53;;
3991;SDS011;2010;48.194;16.394;2023-03-03T09:36:58;62.20;;;35.33;;
3991;SDS011;2010;48.194;16.394;2023-03-03T09:39:31;61.80;;;33.47;;
3991;SDS011;2010;48.194;16.394;2023-03-03T09:54:05;53.90;;;32.90;;
3991;SDS011;2010;48.194;16.394;2023-03-03T09:57:11;56.70;;;32.03;;
3991;SDS011;2010;48.194;16.394;2023-03-03T09:59:53;51.93;;;32.13;;
3991;SDS011;2010;48.194;16.394;2023-03-03T10:02:47;53.90;;;32.23;;
3991;SDS011;2010;48.194;16.394;2023-03-03T10:05:26;56.63;;;33.50;;
3991;SDS011;2010;48.194;16.394;2023-03-03T10:08:02;57.70;;;32.93;;
3991;SDS011;2010;48.194;16.394;2023-03-03T10:10:48;54.30;;;32.30;;
3991;SDS011;2010;48.194;16.394;2023-03-03T10:13:25;53.47;;;32.97;;
3991;SDS011;2010;48.194;16.394;2023-03-03T10:16:18;55.53;;;32.43;;
3991;SDS011;2010;48.194;16.394;2023-03-03T10:19:23;52.80;;;32.10;;
3991;SDS011;2010;48.194;16.394;2023-03-03T10:22:10;58.10;;;35.07;;
3991;SDS011;2010;48.194;16.394;2023-03-03T10:25:00;52.87;;;32.23;;
3991;SDS011;2010;48.194;16.394;2023-03-03T10:27:39;50.50;;;31.57;;
3991;SDS011;2010;48.194;16.394;2023-03-03T10:30:24;52.90;;;30.93;;
3991;SDS011;2010;48.194;16.394;2023-03-03T10:33:11;54.80;;;31.20;;
3991;SDS011;2010;48.194;16.394;2023-03-03T10:38:51;51.67;;;32.67;;
3991;SDS011;2010;48.194;16.394;2023-03-03T10:41:38;52.10;;;31.50;;
3991;SDS011;2010;48.194;16.394;2023-03-03T10:44:22;51.40;;;30.83;;
3991;SDS011;2010;48.194;16.394;2023-03-03T10:47:25;48.27;;;30.87;;
3991;SDS011;2010;48.194;16.394;2023-03-03T10:50:11;51.90;;;30.87;;
3991;SDS011;2010;48.194;16.394;2023-03-03T10:52:52;49.50;;;30.70;;
3991;SDS011;2010;48.194;16.394;2023-03-03T10:55:35;43.27;;;27.27;;
3991;SDS011;2010;48.194;16.394;2023-03-03T11:01:16;47.97;;;31.17;;
3991;SDS011;2010;48.194;16.394;2023-03-03T11:07:18;46.57;;;28.10;;
3991;SDS011;2010;48.194;16.394;2023-03-03T11:09:58;43.63;;;26.33;;
3991;SDS011;2010;48.194;16.394;2023-03-03T11:12:38;43.27;;;28.03;;
3991;SDS011;2010;48.194;16.394;2023-03-03T11:15:21;44.60;;;28.70;;
3991;SDS011;2010;48.194;16.394;2023-03-03T11:18:15;44.40;;;26.73;;
3991;SDS011;2010;48.194;16.394;2023-03-03T11:20:54;48.20;;;30.30;;
3991;SDS011;2010;48.194;16.394;2023-03-03T11:23:31;47.93;;;28.87;;
3991;SDS011;2010;48.194;16.394;2023-03-03T11:26:22;42.87;;;28.80;;
3991;SDS011;2010;48.194;16.394;2023-03-03T11:32:03;49.13;;;30.60;;
3991;SDS011;2010;48.194;16.394;2023-03-03T11:34:49;47.50;;;31.40;;
3991;SDS011;2010;48.194;16.394;2023-03-03T11:37:26;43.53;;;28.30;;
3991;SDS011;2010;48.194;16.394;2023-03-03T11:40:11;46.77;;;29.20;;
3991;SDS011;2010;48.194;16.394;2023-03-03T11:42:56;47.90;;;29.20;;
3991;SDS011;2010;48.194;16.394;2023-03-03T11:45:32;47.93;;;28.10;;
3991;SDS011;2010;48.194;16.394;2023-03-03T11:48:11;43.27;;;26.33;;
3991;SDS011;2010;48.194;16.394;2023-03-03T11:50:59;45.83;;;27.60;;
3991;SDS011;2010;48.194;16.394;2023-03-03T11:53:41;41.20;;;27.97;;
3991;SDS011;2010;48.194;16.394;2023-03-03T11:56:24;48.07;;;28.90;;
3991;SDS011;2010;48.194;16.394;2023-03-03T12:05:05;40.17;;;25.87;;
3991;SDS011;2010;48.194;16.394;2023-03-03T12:07:38;42.57;;;27.47;;
3991;SDS011;2010;48.194;16.394;2023-03-03T12:10:17;45.03;;;29.33;;
3991;SDS011;2010;48.194;16.394;2023-03-03T12:12:57;42.93;;;29.63;;
3991;SDS011;2010;48.194;16.394;2023-03-03T12:15:35;48.03;;;30.63;;
3991;SDS011;2010;48.194;16.394;2023-03-03T12:18:11;49.50;;;30.43;;
3991;SDS011;2010;48.194;16.394;2023-03-03T12:21:22;43.63;;;30.77;;
3991;SDS011;2010;48.194;16.394;2023-03-03T12:24:06;46.03;;;29.40;;
3991;SDS011;2010;48.194;16.394;2023-03-03T12:26:53;48.57;;;29.80;;
3991;SDS011;2010;48.194;16.394;2023-03-03T12:29:32;44.13;;;29.37;;
3991;SDS011;2010;48.194;16.394;2023-03-03T12:32:18;47.13;;;30.17;;
3991;SDS011;2010;48.194;16.394;2023-03-03T12:34:53;43.23;;;29.03;;
3991;SDS011;2010;48.194;16.394;2023-03-03T12:37:28;41.53;;;26.97;;
3991;SDS011;2010;48.194;16.394;2023-03-03T12:40:17;41.37;;;27.13;;
3991;SDS011;2010;48.194;16.394;2023-03-03T12:42:51;41.50;;;27.67;;
3991;SDS011;2010;48.194;16.394;2023-03-03T12:45:34;47.40;;;28.73;;
3991;SDS011;2010;48.194;16.394;2023-03-03T12:48:11;47.50;;;28.33;;
3991;SDS011;2010;48.194;16.394;2023-03-03T12:50:48;41.40;;;24.57;;
3991;SDS011;2010;48.194;16.394;2023-03-03T12:53:30;35.67;;;25.17;;
3991;SDS011;2010;48.194;16.394;2023-03-03T12:56:05;33.37;;;23.13;;
3991;SDS011;2010;48.194;16.394;2023-03-03T12:58:41;40.83;;;24.43;;
3991;SDS011;2010;48.194;16.394;2023-03-03T13:01:27;31.10;;;22.43;;
3991;SDS011;2010;48.194;16.394;2023-03-03T13:04:09;34.50;;;23.47;;
3991;SDS011;2010;48.194;16.394;2023-03-03T13:06:42;29.93;;;22.73;;
3991;SDS011;2010;48.194;16.394;2023-03-03T13:09:22;40.73;;;25.30;;
3991;SDS011;2010;48.194;16.394;2023-03-03T13:14:54;40.93;;;25.60;;
3991;SDS011;2010;48.194;16.394;2023-03-03T13:17:28;39.80;;;25.93;;
3991;SDS011;2010;48.194;16.394;2023-03-03T13:20:16;33.77;;;23.47;;
3991;SDS011;2010;48.194;16.394;2023-03-03T13:22:49;38.37;;;26.50;;
3991;SDS011;2010;48.194;16.394;2023-03-03T13:25:36;39.93;;;25.03;;
3991;SDS011;2010;48.194;16.394;2023-03-03T13:28:17;42.20;;;26.43;;
3991;SDS011;2010;48.194;16.394;2023-03-03T13:31:04;41.67;;;26.83;;
3991;SDS011;2010;48.194;16.394;2023-03-03T13:33:37;35.90;;;23.90;;
3991;SDS011;2010;48.194;16.394;2023-03-03T13:36:21;38.70;;;23.27;;
3991;SDS011;2010;48.194;16.394;2023-03-03T13:38:57;43.10;;;24.90;;
3991;SDS011;2010;48.194;16.394;2023-03-03T13:41:35;38.47;;;24.60;;
3991;SDS011;2010;48.194;16.394;2023-03-03T13:44:14;42.67;;;25.37;;
3991;SDS011;2010;48.194;16.394;2023-03-03T13:46:53;35.77;;;24.83;;
3991;SDS011;2010;48.194;16.394;2023-03-03T13:49:57;35.83;;;23.10;;
3991;SDS011;2010;48.194;16.394;2023-03-03T13:52:34;41.80;;;27.80;;
3991;SDS011;2010;48.194;16.394;2023-03-03T13:55:20;38.40;;;26.00;;
3991;SDS011;2010;48.194;16.394;2023-03-03T13:58:27;42.03;;;25.67;;
3991;SDS011;2010;48.194;16.394;2023-03-03T14:01:05;35.07;;;24.60;;
3991;SDS011;2010;48.194;16.394;2023-03-03T14:03:48;44.47;;;28.63;;
3991;SDS011;2010;48.194;16.394;2023-03-03T14:06:24;40.27;;;25.63;;
3991;SDS011;2010;48.194;16.394;2023-03-03T14:09:04;35.67;;;25.53;;
3991;SDS011;2010;48.194;16.394;2023-03-03T14:11:43;41.97;;;25.87;;
3991;SDS011;2010;48.194;16.394;2023-03-03T14:14:21;34.07;;;24.37;;
3991;SDS011;2010;48.194;16.394;2023-03-03T14:16:57;36.27;;;25.37;;
3991;SDS011;2010;48.194;16.394;2023-03-03T14:19:35;39.77;;;26.10;;
3991;SDS011;2010;48.194;16.394;2023-03-03T14:22:15;38.30;;;24.93;;
3991;SDS011;2010;48.194;16.394;2023-03-03T14:25:14;41.97;;;25.63;;
3991;SDS011;2010;48.194;16.394;2023-03-03T14:27:58;34.47;;;23.40;;
3991;SDS011;2010;48.194;16.394;2023-03-03T14:30:42;34.83;;;23.53;;
3991;SDS011;2010;48.194;16.394;2023-03-03T14:33:20;32.10;;;22.60;;
3991;SDS011;2010;48.194;16.394;2023-03-03T14:36:04;30.13;;;21.63;;
3991;SDS011;2010;48.194;16.394;2023-03-03T14:38:37;41.93;;;24.77;;
3991;SDS011;2010;48.194;16.394;2023-03-03T14:41:20;34.47;;;23.43;;
3991;SDS011;2010;48.194;16.394;2023-03-03T14:47:16;34.23;;;21.23;;
3991;SDS011;2010;48.194;16.394;2023-03-03T14:49:51;32.80;;;22.40;;
3991;SDS011;2010;48.194;16.394;2023-03-03T14:52:24;34.00;;;23.70;;
3991;SDS011;2010;48.194;16.394;2023-03-03T14:55:01;32.10;;;23.23;;
3991;SDS011;2010;48.194;16.394;2023-03-03T14:57:41;34.30;;;23.97;;
3991;SDS011;2010;48.194;16.394;2023-03-03T15:00:29;33.03;;;22.53;;
3991;SDS011;2010;48.194;16.394;2023-03-03T15:03:17;33.63;;;21.97;;
3991;SDS011;2010;48.194;16.394;2023-03-03T15:05:49;33.93;;;21.80;;
3991;SDS011;2010;48.194;16.394;2023-03-03T15:08:29;31.57;;;22.40;;
3991;SDS011;2010;48.194;16.394;2023-03-03T15:11:17;33.23;;;21.63;;
3991;SDS011;2010;48.194;16.394;2023-03-03T15:13:52;26.87;;;18.20;;
3991;SDS011;2010;48.194;16.394;2023-03-03T15:16:41;23.80;;;16.77;;
3991;SDS011;2010;48.194;16.394;2023-03-03T15:22:16;22.47;;;16.03;;
3991;SDS011;2010;48.194;16.394;2023-03-03T15:24:55;24.00;;;16.30;;
3991;SDS011;2010;48.194;16.394;2023-03-03T15:27:32;21.87;;;14.33;;
3991;SDS011;2010;48.194;16.394;2023-03-03T15:30:09;22.57;;;14.77;;
3991;SDS011;2010;48.194;16.394;2023-03-03T15:32:44;22.90;;;16.00;;
3991;SDS011;2010;48.194;16.394;2023-03-03T15:35:20;21.77;;;15.40;;
3991;SDS011;2010;48.194;16.394;2023-03-03T15:37:59;24.23;;;15.43;;
3991;SDS011;2010;48.194;16.394;2023-03-03T15:40:32;22.70;;;15.00;;
3991;SDS011;2010;48.194;16.394;2023-03-03T15:43:13;24.30;;;15.20;;
3991;SDS011;2010;48.194;16.394;2023-03-03T15:45:56;22.77;;;14.90;;
3991;SDS011;2010;48.194;16.394;2023-03-03T15:48:40;25.37;;;15.00;;
3991;SDS011;2010;48.194;16.394;2023-03-03T15:51:28;23.30;;;15.30;;
3991;SDS011;2010;48.194;16.394;2023-03-03T15:54:19;20.90;;;14.33;;
3991;SDS011;2010;48.194;16.394;2023-03-03T15:57:04;23.00;;;15.73;;
3991;SDS011;2010;48.194;16.394;2023-03-03T15:59:59;20.40;;;15.10;;
3991;SDS011;2010;48.194;16.394;2023-03-03T16:02:45;23.90;;;14.60;;
3991;SDS011;2010;48.194;16.394;2023-03-03T16:05:24;23.60;;;15.80;;
3991;SDS011;2010;48.194;16.394;2023-03-03T16:08:04;20.80;;;15.17;;
3991;SDS011;2010;48.194;16.394;2023-03-03T16:10:43;22.10;;;15.70;;
3991;SDS011;2010;48.194;16.394;2023-03-03T16:13:36;19.47;;;14.83;;
3991;SDS011;2010;48.194;16.394;2023-03-03T16:16:40;25.30;;;16.80;;
3991;SDS011;2010;48.194;16.394;2023-03-03T16:19:19;23.67;;;17.13;;
3991;SDS011;2010;48.194;16.394;2023-03-03T16:25:04;25.03;;;16.70;;
3991;SDS011;2010;48.194;16.394;2023-03-03T16:27:49;25.07;;;17.80;;
3991;SDS011;2010;48.194;16.394;2023-03-03T16:30:27;26.00;;;16.57;;